La Farge, Wisconsin
Current Conditions -  °F | °C
As of 2:35 PM on Thursday 27 Nov 2014 (Local Time) from KY51 Reporting Station
Clear Clear  
Wind Chill:   Ceiling: Unl
Heat Index: 12°   Visibility: 10mi
Dew Point: -1°   Wind: 7mph
Humidity: 56%   Direction: 290°WNW
Pressure: 30.37"   Gusts: NA
Location:  43.57°N, 90.64°W
Report Text: KY51 272035Z AUTO 29006KT 10SM CLR M11/M18 A3037 RMK AO1 T11111183
Loading
Personal Weather Stations






























Interactive Weather Map New forecast layout! Learn more

10-Day Weather Forecast

Advertisements
Track Severe Weather on mobile